Time;durP1;ratioP1;P1;durP2;ratioP2;P2;SDS_P1;SDS_P2;PMS_P1;PMS_P2;Temp;Humidity;BMP_temperature;BMP_pressure;BME280_temperature;BME280_humidity;BME280_pressure;Samples;Min_cycle;Max_cycle;Signal;HPM_P1;HPM_P2
2023/05/03 00:00:25;;;;;;;;;;;;;;;15.80;69.80;101123.03;4990064;28;19914;-81
2023/05/03 00:03:15;;;;;;;;;;;;;;;15.82;70.04;101124.31;4988390;28;20292;-82
2023/05/03 00:06:30;;;;;;;;;;;;;;;15.74;70.80;101121.69;4991243;28;19914;-82
2023/05/03 00:09:22;;;;;;;;;;;;;;;15.71;71.35;101122.34;4990353;28;19914;-81
2023/05/03 00:12:09;;;;;;;;;;;;;;;15.68;71.99;101121.09;4992040;28;19914;-81
2023/05/03 00:14:59;;;;;;;;;;;;;;;15.68;72.11;101117.56;4990388;28;19914;-81
2023/05/03 00:17:51;;;;;;;;;;;;;;;15.64;71.98;101122.13;4993136;28;20301;-80
2023/05/03 00:20:43;;;;;;;;;;;;;;;15.59;72.15;101109.44;4991236;28;19948;-80
2023/05/03 00:23:35;;;;;;;;;;;;;;;15.63;72.52;101123.25;4985930;28;20312;-80
2023/05/03 00:26:25;;;;;;;;;;;;;;;15.62;72.35;101114.22;4989378;28;19913;-80
2023/05/03 00:29:17;;;;;;;;;;;;;;;15.75;71.79;101118.59;4988154;28;19914;-80
2023/05/03 00:32:09;;;;;;;;;;;;;;;15.69;72.21;101117.22;4990547;28;19913;-80
2023/05/03 00:35:01;;;;;;;;;;;;;;;15.77;71.66;101119.06;4985235;28;19914;-80
2023/05/03 00:37:51;;;;;;;;;;;;;;;15.70;71.98;101118.00;4990107;28;19918;-81
2023/05/03 00:40:43;;;;;;;;;;;;;;;15.77;72.15;101119.06;4991909;28;20405;-81
2023/05/03 00:43:35;;;;;;;;;;;;;;;15.73;71.96;101115.41;4987142;28;19997;-81
2023/05/03 00:46:27;;;;;;;;;;;;;;;15.64;72.18;101117.44;4987952;28;20301;-81
2023/05/03 00:49:17;;;;;;;;;;;;;;;15.63;72.61;101123.25;4989720;28;20297;-82
2023/05/03 00:52:10;;;;;;;;;;;;;;;15.58;72.29;101115.25;4988454;28;19918;-81
2023/05/03 00:55:02;;;;;;;;;;;;;;;15.61;72.54;101122.78;4992251;28;19914;-81
2023/05/03 00:57:54;;;;;;;;;;;;;;;15.57;72.70;101121.84;4991400;28;19918;-81
2023/05/03 01:00:48;;;;;;;;;;;;;;;15.54;73.11;101117.06;4986357;28;19914;-80
2023/05/03 01:03:40;;;;;;;;;;;;;;;15.59;72.94;101122.34;4986637;28;19914;-80
2023/05/03 01:06:39;;;;;;;;;;;;;;;15.50;73.00;101116.09;4985087;28;19937;-80
2023/05/03 01:09:35;;;;;;;;;;;;;;;15.47;73.60;101111.28;4984821;28;19914;-82
2023/05/03 01:12:43;;;;;;;;;;;;;;;15.51;73.21;101118.53;4988046;28;19914;-80
2023/05/03 01:15:51;;;;;;;;;;;;;;;15.47;73.55;101116.78;4988005;28;19918;-80
2023/05/03 01:18:45;;;;;;;;;;;;;;;15.46;73.85;101118.72;4991678;28;19914;-80
2023/05/03 01:21:38;;;;;;;;;;;;;;;15.49;73.87;101120.00;4990170;28;19914;-81
2023/05/03 01:24:33;;;;;;;;;;;;;;;15.40;73.98;101120.06;4992573;28;19914;-81
2023/05/03 01:27:25;;;;;;;;;;;;;;;15.45;74.68;101124.53;4990999;28;19914;-80
2023/05/03 01:30:15;;;;;;;;;;;;;;;15.48;74.31;101119.19;4987673;28;19913;-80
2023/05/03 01:33:09;;;;;;;;;;;;;;;15.45;74.61;101117.09;4990000;28;19914;-81
2023/05/03 01:36:03;;;;;;;;;;;;;;;15.47;74.40;101119.50;4986978;28;20389;-80
2023/05/03 01:38:55;;;;;;;;;;;;;;;15.44;74.46;101128.44;4990366;28;19914;-81
2023/05/03 01:41:47;;;;;;;;;;;;;;;15.52;74.32;101131.09;4990317;28;20321;-81
2023/05/03 01:44:39;;;;;;;;;;;;;;;15.43;74.50;101118.59;4986085;28;19914;-81
2023/05/03 01:47:31;;;;;;;;;;;;;;;15.41;74.26;101119.72;4991514;28;19913;-81
2023/05/03 01:50:23;;;;;;;;;;;;;;;15.34;74.36;101116.72;4986199;28;19917;-81
2023/05/03 01:53:15;;;;;;;;;;;;;;;15.44;74.27;101128.44;4986128;28;19914;-81
2023/05/03 01:56:07;;;;;;;;;;;;;;;15.48;73.88;101116.44;4990684;28;20313;-81
2023/05/03 01:58:59;;;;;;;;;;;;;;;15.37;73.92;101116.06;4987129;28;19914;-81
2023/05/03 02:01:51;;;;;;;;;;;;;;;15.24;74.79;101130.84;4994827;28;19914;-82
2023/05/03 02:04:43;;;;;;;;;;;;;;;15.19;75.66;101120.09;4994732;28;19918;-82
2023/05/03 02:07:35;;;;;;;;;;;;;;;15.12;75.49;101130.00;4983575;28;19914;-81
2023/05/03 02:10:26;;;;;;;;;;;;;;;15.09;75.59;101128.72;4982633;28;19914;-81
2023/05/03 02:13:18;;;;;;;;;;;;;;;15.08;75.10;101131.81;4991093;28;19914;-81
2023/05/03 02:16:10;;;;;;;;;;;;;;;15.13;75.41;101135.16;4987504;28;19918;-80
2023/05/03 02:19:02;;;;;;;;;;;;;;;15.21;75.23;101141.69;4991569;28;19913;-81
2023/05/03 02:21:54;;;;;;;;;;;;;;;15.20;75.45;101134.59;4990275;28;19914;-81
2023/05/03 02:24:46;;;;;;;;;;;;;;;15.16;75.14;101137.22;4991994;28;19914;-80
2023/05/03 02:27:34;;;;;;;;;;;;;;;15.12;75.87;101136.28;4990339;28;19914;-81
2023/05/03 02:30:26;;;;;;;;;;;;;;;15.03;75.98;101130.09;4988431;28;19918;-81
2023/05/03 02:33:19;;;;;;;;;;;;;;;15.03;75.86;101130.09;4994185;28;20370;-81
2023/05/03 02:36:11;;;;;;;;;;;;;;;15.03;76.08;101130.09;4991960;28;19918;-81
2023/05/03 02:39:03;;;;;;;;;;;;;;;15.00;76.29;101133.47;4988867;28;19937;-82
2023/05/03 02:41:53;;;;;;;;;;;;;;;14.96;76.71;101130.59;4992161;28;19918;-81
2023/05/03 02:44:45;;;;;;;;;;;;;;;14.95;76.16;101133.69;4987177;28;19914;-79
2023/05/03 02:47:37;;;;;;;;;;;;;;;14.96;76.33;101136.09;4988988;28;20381;-80
2023/05/03 02:50:29;;;;;;;;;;;;;;;14.95;76.41;101134.47;4980490;28;19914;-76
2023/05/03 02:53:18;;;;;;;;;;;;;;;14.92;76.30;101135.16;4980672;28;19914;-80
2023/05/03 02:56:10;;;;;;;;;;;;;;;14.83;77.01;101122.66;4994341;28;19918;-80
2023/05/03 02:59:02;;;;;;;;;;;;;;;14.83;77.21;101128.16;4992437;28;19914;-79
2023/05/03 03:01:54;;;;;;;;;;;;;;;14.81;77.09;101136.69;4990265;28;19914;-79
2023/05/03 03:04:46;;;;;;;;;;;;;;;14.80;77.05;101131.53;4993753;28;19914;-79
2023/05/03 03:07:39;;;;;;;;;;;;;;;14.81;77.40;101133.16;4991745;28;19914;-79
2023/05/03 03:10:26;;;;;;;;;;;;;;;14.78;77.42;101133.81;4989317;28;19914;-79
2023/05/03 03:13:18;;;;;;;;;;;;;;;14.77;77.24;101138.50;4992100;28;19914;-80
2023/05/03 03:16:13;;;;;;;;;;;;;;;14.75;77.36;101139.94;4990532;28;19918;-79
2023/05/03 03:19:05;;;;;;;;;;;;;;;14.78;77.38;101137.34;4989610;28;19914;-80
2023/05/03 03:21:57;;;;;;;;;;;;;;;14.74;77.38;101143.81;4992111;28;19914;-79
2023/05/03 03:24:50;;;;;;;;;;;;;;;14.78;76.78;101139.28;4990600;28;19914;-79
2023/05/03 03:27:42;;;;;;;;;;;;;;;14.73;76.99;101143.00;4989797;28;19914;-79
2023/05/03 03:30:34;;;;;;;;;;;;;;;14.75;77.06;101154.44;4989650;28;19917;-79
2023/05/03 03:33:43;;;;;;;;;;;;;;;14.78;76.67;101152.97;4994138;28;19918;-79
2023/05/03 03:36:38;;;;;;;;;;;;;;;14.76;77.07;101150.56;4991654;28;19918;-79
2023/05/03 03:39:30;;;;;;;;;;;;;;;14.78;77.02;101152.97;4989830;28;19909;-80
2023/05/03 03:42:22;;;;;;;;;;;;;;;14.77;76.77;101151.38;4993293;28;19952;-80
2023/05/03 03:45:14;;;;;;;;;;;;;;;14.82;77.15;101153.91;4990852;28;19918;-79
2023/05/03 03:48:04;;;;;;;;;;;;;;;14.83;77.25;101150.81;4994622;28;19914;-80
2023/05/03 03:50:56;;;;;;;;;;;;;;;14.81;76.76;101157.78;4991781;28;19914;-78
2023/05/03 03:53:51;;;;;;;;;;;;;;;14.82;76.90;101153.91;4989326;28;20120;-78
2023/05/03 03:56:43;;;;;;;;;;;;;;;14.88;76.74;101163.53;4992874;28;19918;-79
2023/05/03 03:59:34;;;;;;;;;;;;;;;14.88;76.86;101171.75;4989781;28;19913;-78
2023/05/03 04:02:26;;;;;;;;;;;;;;;14.88;76.66;101171.75;4988534;28;19914;-78
2023/05/03 04:05:18;;;;;;;;;;;;;;;14.88;76.96;101167.06;4992072;28;19914;-78
2023/05/03 04:08:10;;;;;;;;;;;;;;;14.88;76.56;101171.75;4989666;28;19917;-78
2023/05/03 04:11:01;;;;;;;;;;;;;;;14.83;76.68;101180.16;4979620;23;20309;-78
2023/05/03 04:13:53;;;;;;;;;;;;;;;14.85;76.37;101172.41;4972282;28;19918;-78
2023/05/03 04:16:45;;;;;;;;;;;;;;;14.88;76.21;101182.72;4970423;28;19919;-77
2023/05/03 04:19:37;;;;;;;;;;;;;;;14.96;76.29;101181.84;4966511;28;19914;-77
2023/05/03 04:22:29;;;;;;;;;;;;;;;14.89;76.51;101185.09;4938190;29;20286;-77
2023/05/03 04:25:21;;;;;;;;;;;;;;;14.88;76.26;101182.72;4937808;29;20375;-78
2023/05/03 04:28:20;;;;;;;;;;;;;;;14.87;76.82;101186.59;4950828;28;19918;-78
2023/05/03 04:31:12;;;;;;;;;;;;;;;14.86;76.73;101191.25;4948653;28;19914;-78
2023/05/03 04:34:04;;;;;;;;;;;;;;;14.85;76.63;101191.56;4932822;29;20291;-77
2023/05/03 04:36:56;;;;;;;;;;;;;;;14.85;77.08;101200.59;4943710;28;19919;-77
2023/05/03 04:39:46;;;;;;;;;;;;;;;14.70;78.12;101198.44;4928040;28;20077;-83
2023/05/03 04:42:38;;;;;;;;;;;;;;;14.74;78.83;101198.56;4948884;28;19914;-84
2023/05/03 04:45:31;;;;;;;;;;;;;;;14.66;79.03;101208.44;4940170;28;19915;-84
2023/05/03 04:48:24;;;;;;;;;;;;;;;14.61;79.70;101213.31;4970600;28;19914;-85
2023/05/03 04:51:14;;;;;;;;;;;;;;;14.42;79.95;101216.47;4958360;28;19915;-84
2023/05/03 04:54:06;;;;;;;;;;;;;;;13.97;82.88;101216.06;4980013;28;19914;-85
2023/05/03 04:56:58;;;;;;;;;;;;;;;14.06;83.08;101216.88;4960667;28;19918;-83
2023/05/03 04:59:48;;;;;;;;;;;;;;;14.20;81.94;101219.41;4947352;29;19923;-85
2023/05/03 05:02:41;;;;;;;;;;;;;;;14.20;81.59;101222.13;4949811;29;20382;-85
2023/05/03 05:05:34;;;;;;;;;;;;;;;14.48;80.21;101223.31;4948234;29;19915;-85
2023/05/03 05:08:26;;;;;;;;;;;;;;;14.25;80.49;101225.50;4960935;28;19923;-84
2023/05/03 05:11:19;;;;;;;;;;;;;;;14.05;82.35;101220.72;4950175;29;19914;-85
2023/05/03 05:14:11;;;;;;;;;;;;;;;14.36;82.32;101225.94;4948217;29;20370;-84
2023/05/03 05:17:03;;;;;;;;;;;;;;;14.53;82.24;101232.16;4943582;29;19919;-83
2023/05/03 05:19:55;;;;;;;;;;;;;;;14.84;81.11;101231.03;4937880;29;19915;-84
2023/05/03 05:22:48;;;;;;;;;;;;;;;15.13;79.06;101231.03;4939764;29;19914;-83
2023/05/03 05:25:41;;;;;;;;;;;;;;;15.22;77.80;101230.97;4937167;29;19915;-82
2023/05/03 05:28:31;;;;;;;;;;;;;;;15.56;78.57;101232.66;4954576;28;19915;-83
2023/05/03 05:31:22;;;;;;;;;;;;;;;15.57;76.47;101226.84;4940561;29;19919;-80
2023/05/03 05:34:14;;;;;;;;;;;;;;;15.75;75.77;101239.22;4957111;28;19919;-81
2023/05/03 05:37:06;;;;;;;;;;;;;;;15.71;76.02;101237.50;4959770;28;19919;-80
2023/05/03 05:39:59;;;;;;;;;;;;;;;15.99;75.55;101241.28;4955758;28;19914;-82
2023/05/03 05:42:53;;;;;;;;;;;;;;;16.17;73.38;101241.88;4953638;29;19918;-80
2023/05/03 05:45:43;;;;;;;;;;;;;;;16.12;73.33;101242.09;4957131;29;19915;-80
2023/05/03 05:48:35;;;;;;;;;;;;;;;16.16;72.97;101246.56;4968713;28;19914;-80
2023/05/03 05:51:27;;;;;;;;;;;;;;;16.15;73.01;101238.69;4952475;28;20386;-81
2023/05/03 05:54:19;;;;;;;;;;;;;;;16.18;73.45;101236.06;4951705;28;20325;-80
2023/05/03 05:57:11;;;;;;;;;;;;;;;16.41;72.03;101239.16;4932170;29;19919;-80
2023/05/03 06:00:04;;;;;;;;;;;;;;;16.37;71.95;101242.94;4956946;28;19915;-81
2023/05/03 06:03:00;;;;;;;;;;;;;;;16.49;71.84;101240.22;4926709;29;19923;-80
2023/05/03 06:05:52;;;;;;;;;;;;;;;16.68;70.88;101244.03;4941667;28;19942;-80
2023/05/03 06:08:44;;;;;;;;;;;;;;;16.83;69.61;101245.28;4937572;29;20385;-79
2023/05/03 06:11:36;;;;;;;;;;;;;;;16.98;69.43;101247.34;4930773;29;19915;-81
2023/05/03 06:14:29;;;;;;;;;;;;;;;16.98;69.26;101252.81;4956204;29;19918;-80
2023/05/03 06:17:19;;;;;;;;;;;;;;;16.95;69.36;101248.03;4930873;29;19918;-81
2023/05/03 06:20:12;;;;;;;;;;;;;;;17.08;68.93;101251.56;4937005;29;19914;-81
2023/05/03 06:23:04;;;;;;;;;;;;;;;17.17;68.87;101249.47;4962464;28;20398;-81
2023/05/03 06:25:56;;;;;;;;;;;;;;;17.27;68.86;101253.72;4947150;29;19915;-82
2023/05/03 06:28:45;;;;;;;;;;;;;;;17.32;68.47;101253.47;4950421;29;20305;-82
2023/05/03 06:31:37;;;;;;;;;;;;;;;17.38;68.35;101255.63;4936253;29;19919;-82
2023/05/03 06:34:27;;;;;;;;;;;;;;;17.45;68.61;101255.03;4937561;28;19918;-81
2023/05/03 06:37:20;;;;;;;;;;;;;;;17.49;68.30;101255.94;4943901;28;19919;-82
2023/05/03 06:40:13;;;;;;;;;;;;;;;17.50;68.34;101263.03;4934720;29;19915;-79
2023/05/03 06:43:05;;;;;;;;;;;;;;;17.54;68.06;101263.94;4941253;29;19918;-80
2023/05/03 06:45:58;;;;;;;;;;;;;;;17.57;68.28;101260.50;4935051;29;19915;-80
2023/05/03 06:48:45;;;;;;;;;;;;;;;17.61;68.50;101269.69;4940859;29;19918;-80
2023/05/03 06:51:37;;;;;;;;;;;;;;;17.61;69.41;101268.88;4929945;29;19914;-81
2023/05/03 06:54:29;;;;;;;;;;;;;;;17.59;69.74;101271.97;4934398;29;20298;-82
2023/05/03 06:57:21;;;;;;;;;;;;;;;17.58;70.11;101267.56;4927120;29;19919;-81
2023/05/03 07:00:13;;;;;;;;;;;;;;;17.59;69.72;101271.13;4931319;29;19918;-79
2023/05/03 07:03:05;;;;;;;;;;;;;;;17.57;69.33;101270.69;4938814;29;19915;-80
2023/05/03 07:05:57;;;;;;;;;;;;;;;17.57;69.29;101260.50;4938601;29;19915;-80
2023/05/03 07:08:47;;;;;;;;;;;;;;;17.56;68.88;101267.16;4942542;29;19915;-81
2023/05/03 07:11:38;;;;;;;;;;;;;;;17.57;68.56;101266.00;4940404;29;20298;-80
2023/05/03 07:14:30;;;;;;;;;;;;;;;17.55;68.65;101265.53;4938462;29;19914;-80
2023/05/03 07:17:25;;;;;;;;;;;;;;;17.60;67.96;101267.28;4943917;29;19919;-78
2023/05/03 07:20:15;;;;;;;;;;;;;;;17.61;67.67;101264.19;4938641;29;19914;-80
2023/05/03 07:23:07;;;;;;;;;;;;;;;17.63;67.40;101263.81;4941808;29;19915;-81
2023/05/03 07:25:59;;;;;;;;;;;;;;;17.71;67.21;101265.63;4940566;29;19915;-80
2023/05/03 07:28:51;;;;;;;;;;;;;;;17.70;67.46;101267.56;4938184;29;19915;-80
2023/05/03 07:31:43;;;;;;;;;;;;;;;17.71;67.46;101263.69;4941719;29;19918;-80
2023/05/03 07:34:35;;;;;;;;;;;;;;;17.73;67.45;101255.06;4939569;29;19915;-80
2023/05/03 07:37:27;;;;;;;;;;;;;;;17.74;66.98;101260.22;4937143;29;19919;-81
2023/05/03 07:40:16;;;;;;;;;;;;;;;17.76;66.95;101252.44;4938016;29;19915;-81
2023/05/03 07:43:08;;;;;;;;;;;;;;;17.71;67.68;101262.88;4937900;28;19915;-78
2023/05/03 07:46:01;;;;;;;;;;;;;;;17.75;66.81;101256.31;4954660;28;19914;-82
2023/05/03 07:48:50;;;;;;;;;;;;;;;17.80;66.69;101253.31;4945733;29;19914;-81
2023/05/03 07:51:42;;;;;;;;;;;;;;;17.87;66.43;101253.53;4945972;29;19915;-81
2023/05/03 07:54:32;;;;;;;;;;;;;;;17.95;66.14;101260.03;4923624;29;19915;-81
2023/05/03 07:57:24;;;;;;;;;;;;;;;17.98;65.96;101261.28;4920154;29;19919;-81
2023/05/03 08:00:16;;;;;;;;;;;;;;;18.03;65.51;101259.03;4918658;29;20379;-81
2023/05/03 08:03:08;;;;;;;;;;;;;;;18.08;65.05;101267.03;4929907;29;19914;-80
2023/05/03 08:06:00;;;;;;;;;;;;;;;18.12;65.13;101267.16;4947994;28;19914;-81
2023/05/03 08:08:52;;;;;;;;;;;;;;;18.20;64.64;101264.25;4957749;28;19918;-80
2023/05/03 08:11:44;;;;;;;;;;;;;;;18.24;64.63;101265.13;4960636;28;20278;-80
2023/05/03 08:14:36;;;;;;;;;;;;;;;18.31;64.31;101264.53;4957855;28;20305;-80
2023/05/03 08:17:28;;;;;;;;;;;;;;;18.35;64.24;101265.41;4960617;28;19918;-81
2023/05/03 08:20:20;;;;;;;;;;;;;;;18.36;63.97;101264.25;4958086;28;19914;-81
2023/05/03 08:23:07;;;;;;;;;;;;;;;18.34;63.47;101266.56;4956605;28;20293;-82
2023/05/03 08:25:59;;;;;;;;;;;;;;;18.39;63.36;101271.81;4960404;28;19914;-80
2023/05/03 08:28:48;;;;;;;;;;;;;;;18.43;63.18;101272.72;4957588;28;19914;-81
2023/05/03 08:31:40;;;;;;;;;;;;;;;18.44;63.00;101282.56;4955455;28;19914;-80
2023/05/03 08:34:32;;;;;;;;;;;;;;;18.43;62.92;101282.94;4958678;28;19914;-81
2023/05/03 08:37:24;;;;;;;;;;;;;;;18.42;63.33;101279.38;4957024;28;19926;-81
2023/05/03 08:40:16;;;;;;;;;;;;;;;18.49;63.11;101281.50;4958104;28;19914;-81
2023/05/03 08:43:13;;;;;;;;;;;;;;;18.48;62.88;101282.66;4958338;28;19914;-81
2023/05/03 08:46:03;;;;;;;;;;;;;;;18.55;62.41;101286.41;4955937;28;20298;-80
2023/05/03 08:48:55;;;;;;;;;;;;;;;18.55;62.49;101282.84;4959490;28;19914;-81
2023/05/03 08:51:47;;;;;;;;;;;;;;;18.59;62.20;101284.53;4957320;28;20382;-82
2023/05/03 08:54:39;;;;;;;;;;;;;;;18.61;61.80;101287.75;4954960;28;20289;-82
2023/05/03 08:57:31;;;;;;;;;;;;;;;18.65;61.90;101285.88;4959131;28;19919;-79
2023/05/03 09:00:28;;;;;;;;;;;;;;;18.70;61.59;101282.06;4956351;28;19915;-81
2023/05/03 09:03:18;;;;;;;;;;;;;;;18.77;60.93;101277.53;4959417;28;19914;-81
2023/05/03 09:06:20;;;;;;;;;;;;;;;18.77;60.64;101280.28;4957686;28;19914;-81
2023/05/03 09:09:12;;;;;;;;;;;;;;;18.77;60.61;101283.03;4954504;28;19922;-81
2023/05/03 09:12:01;;;;;;;;;;;;;;;18.87;60.29;101275.38;4958512;28;19914;-80
2023/05/03 09:14:53;;;;;;;;;;;;;;;18.88;59.97;101275.03;4956343;28;20413;-81
2023/05/03 09:17:43;;;;;;;;;;;;;;;18.88;59.87;101282.50;4959981;28;20508;-82
2023/05/03 09:20:38;;;;;;;;;;;;;;;18.91;59.08;101277.06;4956642;28;19914;-80
2023/05/03 09:23:31;;;;;;;;;;;;;;;18.92;59.45;101281.44;4955136;28;19914;-81
2023/05/03 09:26:36;;;;;;;;;;;;;;;19.00;58.87;101282.38;4958664;28;20386;-81
2023/05/03 09:29:35;;;;;;;;;;;;;;;19.00;58.67;101283.19;4956140;28;19915;-81
2023/05/03 09:32:27;;;;;;;;;;;;;;;19.08;58.11;101284.97;4959317;28;19915;-81
2023/05/03 09:35:19;;;;;;;;;;;;;;;19.04;57.69;101280.53;4956941;28;19915;-79
2023/05/03 09:38:09;;;;;;;;;;;;;;;19.04;58.40;101275.81;4954890;28;19918;-81
2023/05/03 09:41:01;;;;;;;;;;;;;;;19.03;57.85;101276.97;4954947;28;19914;-81
2023/05/03 09:43:51;;;;;;;;;;;;;;;19.08;57.33;101270.38;4956371;29;19914;-81
2023/05/03 09:47:02;;;;;;;;;;;;;;;19.14;56.50;101279.97;4954430;29;19914;-81
2023/05/03 09:49:53;;;;;;;;;;;;;;;19.15;57.03;101276.84;4956770;28;19919;-80
2023/05/03 09:52:46;;;;;;;;;;;;;;;19.21;57.24;101271.84;4954795;29;19915;-81
2023/05/03 09:55:40;;;;;;;;;;;;;;;19.29;57.16;101264.53;4957943;29;19914;-80
2023/05/03 09:58:33;;;;;;;;;;;;;;;19.30;55.77;101266.16;4949074;29;20290;-81
2023/05/03 10:01:25;;;;;;;;;;;;;;;19.26;57.23;101271.56;4944930;29;19914;-81
2023/05/03 10:04:22;;;;;;;;;;;;;;;19.43;55.57;101257.38;4956875;29;20293;-82
2023/05/03 10:07:12;;;;;;;;;;;;;;;19.59;55.19;101252.63;4954965;29;19915;-82
2023/05/03 10:10:04;;;;;;;;;;;;;;;19.76;53.83;101256.88;4996865;23;19922;-83
2023/05/03 10:12:56;;;;;;;;;;;;;;;19.90;52.09;101259.16;4956707;29;20378;-80
2023/05/03 10:15:48;;;;;;;;;;;;;;;19.84;52.73;101252.31;4953520;29;19923;-80
2023/05/03 10:18:35;;;;;;;;;;;;;;;19.78;52.23;101259.28;4958352;28;19918;-80
2023/05/03 10:21:47;;;;;;;;;;;;;;;19.92;50.98;101259.56;4961000;28;19915;-80
2023/05/03 10:24:58;;;;;;;;;;;;;;;19.99;49.32;101248.66;4948576;28;19914;-80
2023/05/03 10:27:51;;;;;;;;;;;;;;;20.24;47.97;101255.44;4962287;28;19914;-81
2023/05/03 10:30:43;;;;;;;;;;;;;;;20.39;47.54;101251.78;4950737;28;19915;-82
2023/05/03 10:33:33;;;;;;;;;;;;;;;20.60;47.52;101258.84;4966834;28;19914;-82
2023/05/03 10:36:25;;;;;;;;;;;;;;;20.46;47.46;101240.06;4971137;28;19918;-82
2023/05/03 10:39:18;;;;;;;;;;;;;;;20.54;47.96;101246.50;4965506;28;20175;-81
2023/05/03 10:42:10;;;;;;;;;;;;;;;20.34;47.50;101252.09;4959517;28;19914;-81
2023/05/03 10:45:02;;;;;;;;;;;;;;;20.23;48.65;101237.28;4957259;28;19917;-81
2023/05/03 10:48:08;;;;;;;;;;;;;;;20.26;47.50;101233.00;4961031;28;19914;-82
2023/05/03 10:51:15;;;;;;;;;;;;;;;20.59;45.96;101232.38;4938931;28;19915;-81
2023/05/03 10:54:07;;;;;;;;;;;;;;;20.73;45.70;101238.13;4941647;29;19914;-81
2023/05/03 10:56:58;;;;;;;;;;;;;;;20.68;44.79;101230.94;4946612;28;19914;-82
2023/05/03 10:59:51;;;;;;;;;;;;;;;20.68;45.82;101227.38;4971460;28;19914;-82
2023/05/03 11:02:45;;;;;;;;;;;;;;;20.67;43.33;101234.09;4940995;29;19919;-82
2023/05/03 11:05:36;;;;;;;;;;;;;;;20.44;45.47;101221.09;4938680;29;20301;-82
2023/05/03 11:08:28;;;;;;;;;;;;;;;20.55;44.22;101226.81;4952681;28;19914;-82
2023/05/03 11:11:20;;;;;;;;;;;;;;;20.60;44.07;101217.41;4977786;28;19914;-82
2023/05/03 11:14:12;;;;;;;;;;;;;;;20.78;44.58;101218.44;4956788;29;19914;-81
2023/05/03 11:17:02;;;;;;;;;;;;;;;20.67;44.19;101223.81;4961160;28;19914;-82
2023/05/03 11:19:54;;;;;;;;;;;;;;;20.53;46.21;101207.00;4958925;28;19915;-81
2023/05/03 11:22:46;;;;;;;;;;;;;;;20.55;46.19;101209.41;4962785;28;19914;-82
2023/05/03 11:25:38;;;;;;;;;;;;;;;20.40;47.06;101208.38;4963858;28;19918;-82
2023/05/03 11:28:30;;;;;;;;;;;;;;;20.60;46.56;101220.97;4958281;28;19914;-82
2023/05/03 11:31:21;;;;;;;;;;;;;;;20.64;43.58;101212.72;4957697;28;19914;-82
2023/05/03 11:34:16;;;;;;;;;;;;;;;20.46;46.54;101212.44;4962227;28;19914;-82
2023/05/03 11:37:09;;;;;;;;;;;;;;;20.29;47.53;101212.91;4979079;28;19914;-82
2023/05/03 11:39:58;;;;;;;;;;;;;;;20.55;46.83;101207.47;4963012;28;19914;-81
2023/05/03 11:42:57;;;;;;;;;;;;;;;20.70;46.63;101200.19;4966070;28;19914;-81
2023/05/03 11:45:47;;;;;;;;;;;;;;;20.79;46.91;101209.78;4947135;28;20623;-81
2023/05/03 11:48:39;;;;;;;;;;;;;;;20.75;46.88;101205.38;4967053;28;19921;-81
2023/05/03 11:51:31;;;;;;;;;;;;;;;20.60;47.14;101203.56;4960250;28;20325;-81
2023/05/03 11:54:23;;;;;;;;;;;;;;;20.44;47.11;101203.72;4964331;28;19922;-82
2023/05/03 11:57:16;;;;;;;;;;;;;;;20.73;47.83;101202.97;4943516;28;19915;-81
2023/05/03 12:00:20;;;;;;;;;;;;;;;21.10;46.44;101197.59;4946784;28;19915;-81
2023/05/03 12:03:12;;;;;;;;;;;;;;;21.20;47.18;101202.50;4972164;28;20381;-81
2023/05/03 12:06:04;;;;;;;;;;;;;;;21.06;45.53;101202.28;4951286;28;19914;-81
2023/05/03 12:08:56;;;;;;;;;;;;;;;21.01;45.58;101199.06;4949195;28;19919;-81
2023/05/03 12:11:48;;;;;;;;;;;;;;;20.80;46.77;101200.34;4953940;28;19918;-82
2023/05/03 12:14:59;;;;;;;;;;;;;;;20.93;46.56;101195.38;4956344;28;20313;-80
2023/05/03 12:17:56;;;;;;;;;;;;;;;21.05;47.12;101192.41;4954962;28;19922;-81
2023/05/03 12:20:56;;;;;;;;;;;;;;;21.07;45.24;101197.56;4943718;28;19918;-82
2023/05/03 12:23:48;;;;;;;;;;;;;;;21.00;45.19;101198.25;4958894;28;19918;-82
2023/05/03 12:26:40;;;;;;;;;;;;;;;21.05;47.55;101208.19;4952887;28;19914;-81
2023/05/03 12:29:30;;;;;;;;;;;;;;;20.91;47.34;101206.03;4959235;28;19914;-81
2023/05/03 12:32:19;;;;;;;;;;;;;;;20.66;47.17;101200.13;4946343;28;19914;-82
2023/05/03 12:35:11;;;;;;;;;;;;;;;20.56;47.96;101205.50;4945812;28;19914;-81
2023/05/03 12:38:00;;;;;;;;;;;;;;;20.51;47.97;101206.59;4945993;28;19919;-81
2023/05/03 12:40:52;;;;;;;;;;;;;;;20.65;47.88;101200.50;4938224;29;19915;-82
2023/05/03 12:43:44;;;;;;;;;;;;;;;20.63;47.53;101200.06;4941094;29;19915;-82
2023/05/03 12:46:36;;;;;;;;;;;;;;;20.71;47.18;101199.00;4939832;29;19915;-81
2023/05/03 12:49:25;;;;;;;;;;;;;;;20.74;46.84;101201.03;4937621;29;19915;-82
2023/05/03 12:52:17;;;;;;;;;;;;;;;20.76;45.96;101190.41;4941084;29;19914;-82
2023/05/03 12:55:09;;;;;;;;;;;;;;;20.72;47.30;101195.88;4938755;29;19915;-83
2023/05/03 12:57:59;;;;;;;;;;;;;;;20.73;46.19;101202.19;4936609;29;19919;-82
2023/05/03 13:00:51;;;;;;;;;;;;;;;20.79;44.29;101195.19;4937876;29;19915;-82
2023/05/03 13:03:43;;;;;;;;;;;;;;;20.73;45.60;101197.47;4941976;29;20286;-82
2023/05/03 13:06:32;;;;;;;;;;;;;;;20.62;47.14;101199.25;4936228;29;19915;-81
2023/05/03 13:09:24;;;;;;;;;;;;;;;20.55;45.04;101188.13;4939190;29;20298;-82
2023/05/03 13:12:16;;;;;;;;;;;;;;;20.64;46.88;101190.59;4937491;29;20326;-81
2023/05/03 13:15:08;;;;;;;;;;;;;;;20.70;46.56;101191.88;4960808;28;19918;-82
2023/05/03 13:17:58;;;;;;;;;;;;;;;20.70;46.24;101178.88;4954841;28;19918;-81
2023/05/03 13:20:50;;;;;;;;;;;;;;;20.75;46.03;101184.06;4974049;28;19914;-81
2023/05/03 13:23:40;;;;;;;;;;;;;;;20.69;46.27;101179.22;4939859;29;19915;-81
2023/05/03 13:26:30;;;;;;;;;;;;;;;20.52;46.42;101177.00;4938232;29;19914;-81
2023/05/03 13:29:19;;;;;;;;;;;;;;;20.68;46.18;101172.09;4941330;29;19940;-82
2023/05/03 13:32:11;;;;;;;;;;;;;;;20.69;47.38;101176.47;4958738;28;19914;-81
2023/05/03 13:35:00;;;;;;;;;;;;;;;20.63;46.41;101184.28;4948720;28;19915;-81
2023/05/03 13:37:49;;;;;;;;;;;;;;;20.64;46.34;101180.34;4942244;28;19919;-81
2023/05/03 13:40:41;;;;;;;;;;;;;;;20.63;46.29;101181.50;4953773;28;20301;-82
2023/05/03 13:43:33;;;;;;;;;;;;;;;20.51;45.96;101178.97;4956322;28;19914;-81
2023/05/03 13:46:25;;;;;;;;;;;;;;;20.51;46.93;101173.44;4940207;29;19915;-82
2023/05/03 13:49:18;;;;;;;;;;;;;;;20.46;46.97;101171.81;4944163;28;19914;-81
2023/05/03 13:52:07;;;;;;;;;;;;;;;20.35;47.09;101173.59;4949130;29;20382;-80
2023/05/03 13:54:57;;;;;;;;;;;;;;;20.35;46.50;101165.31;4953226;28;19914;-81
2023/05/03 13:57:49;;;;;;;;;;;;;;;20.29;45.50;101160.44;4960349;28;20558;-80
2023/05/03 14:00:41;;;;;;;;;;;;;;;20.28;46.97;101162.38;4939251;29;19914;-80
2023/05/03 14:03:30;;;;;;;;;;;;;;;20.34;45.92;101158.19;4948107;28;20454;-80
2023/05/03 14:06:20;;;;;;;;;;;;;;;20.40;46.01;101165.00;4964951;28;19913;-81
2023/05/03 14:09:13;;;;;;;;;;;;;;;20.37;44.75;101160.19;4977492;28;19926;-81
2023/05/03 14:12:03;;;;;;;;;;;;;;;20.45;46.09;101161.91;4980622;28;19914;-81
2023/05/03 14:14:53;;;;;;;;;;;;;;;20.56;44.51;101164.03;4978603;28;19914;-80
2023/05/03 14:17:42;;;;;;;;;;;;;;;20.50;45.68;101158.03;4982186;28;19914;-80
2023/05/03 14:20:34;;;;;;;;;;;;;;;20.66;43.65;101161.44;4979960;28;19914;-80
2023/05/03 14:23:23;;;;;;;;;;;;;;;20.59;44.61;101163.28;4975205;28;19913;-81
2023/05/03 14:26:15;;;;;;;;;;;;;;;20.56;44.54;101162.06;4944033;28;19922;-81
2023/05/03 14:29:07;;;;;;;;;;;;;;;20.44;43.84;101159.50;4945293;28;19915;-81
2023/05/03 14:31:59;;;;;;;;;;;;;;;20.73;41.11;101166.25;4944618;28;20540;-82
2023/05/03 14:34:51;;;;;;;;;;;;;;;20.78;41.36;101163.16;4948243;28;19918;-81
2023/05/03 14:37:43;;;;;;;;;;;;;;;20.77;39.90;101172.66;4945907;28;19914;-81
2023/05/03 14:40:33;;;;;;;;;;;;;;;20.61;41.97;101167.28;4954492;28;20463;-81
2023/05/03 14:43:25;;;;;;;;;;;;;;;20.56;43.46;101172.34;4954839;28;19915;-81